createdAt,value
2022-12-31T00:02:15.565Z,5.71
2022-12-31T00:04:42.295Z,5.71
2022-12-31T00:07:09.024Z,5.85
2022-12-31T00:09:35.674Z,6.01
2022-12-31T00:12:02.228Z,5.98
2022-12-31T00:14:28.897Z,5.89
2022-12-31T00:16:56.008Z,5.90
2022-12-31T00:19:22.685Z,5.81
2022-12-31T00:21:49.394Z,6.03
2022-12-31T00:24:16.068Z,5.82
2022-12-31T00:26:42.678Z,6.03
2022-12-31T00:29:10.169Z,6.14
2022-12-31T00:31:38.446Z,6.16
2022-12-31T00:34:06.355Z,6.34
2022-12-31T00:36:38.201Z,6.13
2022-12-31T00:39:07.447Z,6.05
2022-12-31T00:41:34.842Z,6.20
2022-12-31T00:44:01.714Z,6.04
2022-12-31T00:46:28.527Z,6.18
2022-12-31T00:48:55.508Z,6.29
2022-12-31T00:51:24.321Z,6.35
2022-12-31T00:53:51.151Z,6.37
2022-12-31T00:56:23.643Z,6.41
2022-12-31T00:58:51.413Z,6.52
2022-12-31T01:01:22.322Z,6.70
2022-12-31T01:03:51.526Z,6.66
2022-12-31T01:06:19.550Z,6.64
2022-12-31T01:08:48.930Z,6.62
2022-12-31T01:11:19.232Z,6.56
2022-12-31T01:13:48.747Z,6.43
2022-12-31T01:16:16.823Z,6.06
2022-12-31T01:18:43.438Z,6.24
2022-12-31T01:21:11.290Z,6.19
2022-12-31T01:23:38.501Z,6.14
2022-12-31T01:26:08.099Z,6.14
2022-12-31T01:28:35.363Z,6.21
2022-12-31T01:31:10.918Z,6.30
2022-12-31T01:33:38.413Z,6.33
2022-12-31T01:36:08.227Z,6.44
2022-12-31T01:38:35.026Z,6.51
2022-12-31T01:41:02.596Z,6.34
2022-12-31T01:43:49.444Z,6.70
2022-12-31T01:46:27.189Z,6.75
2022-12-31T01:48:57.791Z,6.76
2022-12-31T01:51:27.555Z,6.70
2022-12-31T01:53:55.166Z,6.93
2022-12-31T01:56:23.251Z,7.09
2022-12-31T01:58:53.301Z,7.03
2022-12-31T02:01:31.005Z,6.84
2022-12-31T02:03:59.314Z,6.91
2022-12-31T02:06:32.455Z,7.03
2022-12-31T02:08:59.100Z,7.08
2022-12-31T02:11:25.840Z,7.11
2022-12-31T02:13:58.320Z,7.28
2022-12-31T02:16:37.716Z,7.23
2022-12-31T02:19:29.226Z,7.42
2022-12-31T02:21:58.723Z,7.53
2022-12-31T02:24:34.440Z,7.65
2022-12-31T02:27:20.648Z,7.52
2022-12-31T02:30:11.849Z,7.53
2022-12-31T02:32:56.620Z,7.42
2022-12-31T02:35:38.268Z,7.90
2022-12-31T02:38:10.470Z,8.38
2022-12-31T02:40:38.656Z,8.57
2022-12-31T02:43:05.609Z,8.44
2022-12-31T02:45:37.493Z,7.54
2022-12-31T02:48:31.965Z,7.80
2022-12-31T02:51:26.789Z,7.47
2022-12-31T02:54:07.352Z,7.17
2022-12-31T02:57:09.767Z,7.25
2022-12-31T03:00:06.918Z,7.32
2022-12-31T03:02:35.325Z,7.38
2022-12-31T03:05:03.310Z,7.31
2022-12-31T03:07:32.197Z,7.62
2022-12-31T03:10:01.344Z,7.68
2022-12-31T03:12:46.753Z,7.69
2022-12-31T03:15:21.048Z,7.68
2022-12-31T03:18:08.049Z,7.95
2022-12-31T03:20:56.544Z,7.93
2022-12-31T03:23:29.317Z,7.85
2022-12-31T03:25:57.489Z,8.23
2022-12-31T03:28:27.057Z,8.00
2022-12-31T03:30:56.620Z,8.17
2022-12-31T03:33:23.814Z,7.99
2022-12-31T03:35:51.696Z,8.00
2022-12-31T03:38:19.309Z,8.16
2022-12-31T03:40:50.168Z,8.10
2022-12-31T03:43:19.286Z,8.27
2022-12-31T03:45:53.661Z,8.55
2022-12-31T03:48:22.687Z,8.52
2022-12-31T03:50:50.565Z,8.58
2022-12-31T03:53:17.704Z,8.42
2022-12-31T03:55:44.740Z,8.10
2022-12-31T03:58:11.653Z,8.15
2022-12-31T04:00:38.552Z,8.06
2022-12-31T04:03:06.223Z,8.24
2022-12-31T04:05:33.783Z,8.37
2022-12-31T04:08:00.481Z,8.28
2022-12-31T04:10:27.064Z,8.27
2022-12-31T04:12:56.185Z,8.43
2022-12-31T04:15:22.963Z,8.29
2022-12-31T04:17:49.679Z,8.32
2022-12-31T04:20:17.069Z,8.53
2022-12-31T04:22:44.193Z,8.62
2022-12-31T04:25:11.697Z,8.69
2022-12-31T04:27:43.711Z,8.48
2022-12-31T04:30:12.208Z,8.68
2022-12-31T04:32:38.966Z,8.63
2022-12-31T04:35:06.271Z,8.77
2022-12-31T04:37:33.123Z,8.47
2022-12-31T04:40:05.451Z,8.87
2022-12-31T04:42:32.718Z,9.11
2022-12-31T04:44:59.376Z,8.83
2022-12-31T04:47:26.017Z,8.58
2022-12-31T04:49:52.643Z,8.93
2022-12-31T04:52:19.407Z,8.80
2022-12-31T04:54:46.027Z,8.58
2022-12-31T04:57:12.870Z,8.73
2022-12-31T04:59:39.751Z,8.76
2022-12-31T05:02:06.732Z,8.45
2022-12-31T05:04:33.676Z,8.58
2022-12-31T05:07:00.330Z,8.66
2022-12-31T05:09:28.386Z,8.76
2022-12-31T05:11:55.287Z,8.72
2022-12-31T05:14:22.325Z,8.70
2022-12-31T05:16:49.076Z,8.97
2022-12-31T05:19:15.753Z,8.88
2022-12-31T05:21:42.405Z,8.98
2022-12-31T05:24:09.133Z,9.11
2022-12-31T05:26:35.822Z,8.97
2022-12-31T05:29:02.537Z,8.88
2022-12-31T05:31:29.933Z,8.99
2022-12-31T05:33:56.803Z,9.07
2022-12-31T05:36:23.657Z,9.00
2022-12-31T05:38:50.408Z,8.93
2022-12-31T05:41:17.138Z,8.89
2022-12-31T05:43:43.752Z,8.94
2022-12-31T05:46:10.381Z,9.02
2022-12-31T05:48:37.022Z,8.80
2022-12-31T05:51:03.860Z,8.94
2022-12-31T05:53:30.528Z,9.13
2022-12-31T05:55:57.262Z,9.20
2022-12-31T05:58:24.175Z,9.24
2022-12-31T06:00:53.164Z,9.07
2022-12-31T06:03:19.991Z,9.02
2022-12-31T06:05:46.644Z,9.43
2022-12-31T06:08:13.394Z,9.33
2022-12-31T06:10:40.556Z,9.31
2022-12-31T06:13:07.999Z,9.17
2022-12-31T06:15:42.058Z,9.29
2022-12-31T06:18:08.756Z,9.38
2022-12-31T06:20:38.746Z,9.41
2022-12-31T06:23:05.732Z,9.32
2022-12-31T06:25:35.205Z,9.28
2022-12-31T06:28:01.996Z,9.34
2022-12-31T06:30:28.643Z,9.46
2022-12-31T06:32:56.150Z,9.56
2022-12-31T06:35:23.663Z,9.42
2022-12-31T06:37:52.227Z,9.61
2022-12-31T06:40:18.959Z,9.54
2022-12-31T06:42:45.759Z,9.56
2022-12-31T06:45:12.544Z,9.68
2022-12-31T06:47:39.269Z,9.39
2022-12-31T06:50:07.296Z,9.55
2022-12-31T06:52:34.360Z,9.68
2022-12-31T06:55:01.726Z,9.83
2022-12-31T06:57:29.013Z,9.71
2022-12-31T06:59:56.174Z,9.94
2022-12-31T07:02:39.502Z,10.20
2022-12-31T07:05:30.207Z,10.15
2022-12-31T07:08:03.414Z,10.26
2022-12-31T07:11:07.448Z,10.24
2022-12-31T07:14:07.144Z,10.02
2022-12-31T07:16:36.864Z,9.89
2022-12-31T07:19:10.099Z,9.74
2022-12-31T07:21:40.059Z,9.95
2022-12-31T07:24:10.764Z,9.92
2022-12-31T07:26:57.110Z,10.13
2022-12-31T07:29:44.436Z,9.89
2022-12-31T07:32:22.785Z,9.97
2022-12-31T07:35:04.695Z,9.99
2022-12-31T07:37:56.580Z,10.30
2022-12-31T07:40:35.448Z,10.20
2022-12-31T07:43:17.310Z,10.40
2022-12-31T07:46:06.460Z,10.26
2022-12-31T07:48:33.462Z,10.59
2022-12-31T07:51:00.342Z,10.44
2022-12-31T07:53:27.320Z,10.86
2022-12-31T07:55:57.468Z,10.95
2022-12-31T07:58:33.782Z,10.97
2022-12-31T08:01:01.841Z,10.99
2022-12-31T08:03:49.754Z,11.23
2022-12-31T08:06:27.627Z,10.99
2022-12-31T08:09:04.549Z,10.87
2022-12-31T08:12:10.533Z,10.97
2022-12-31T08:14:47.117Z,10.95
2022-12-31T08:17:16.213Z,10.72
2022-12-31T08:19:43.955Z,11.12
2022-12-31T08:22:44.567Z,10.97
2022-12-31T08:25:27.511Z,11.32
2022-12-31T08:28:29.764Z,11.47
2022-12-31T08:31:03.227Z,11.57
2022-12-31T08:33:43.996Z,11.42
2022-12-31T08:36:23.005Z,11.44
2022-12-31T08:39:08.038Z,11.33
2022-12-31T08:41:47.731Z,11.16
2022-12-31T08:44:20.873Z,11.55
2022-12-31T08:47:02.721Z,11.46
2022-12-31T08:49:32.276Z,11.28
2022-12-31T08:52:00.385Z,11.36
2022-12-31T08:54:27.793Z,11.49
2022-12-31T08:57:00.136Z,11.67
2022-12-31T08:59:37.573Z,11.57
2022-12-31T09:02:24.508Z,11.77
2022-12-31T09:05:09.954Z,11.66
2022-12-31T09:07:51.270Z,12.02
2022-12-31T09:10:30.227Z,11.91
2022-12-31T09:12:56.955Z,11.98
2022-12-31T09:15:33.828Z,12.21
2022-12-31T09:18:00.851Z,12.20
2022-12-31T09:20:42.741Z,12.52
2022-12-31T09:23:12.796Z,12.47
2022-12-31T09:25:50.229Z,12.23
2022-12-31T09:28:43.517Z,12.29
2022-12-31T09:31:26.186Z,12.23
2022-12-31T09:34:13.037Z,12.29
2022-12-31T09:36:51.010Z,12.47
2022-12-31T09:39:26.850Z,12.53
2022-12-31T09:41:59.531Z,12.61
2022-12-31T09:44:58.967Z,12.45
2022-12-31T09:47:37.795Z,12.79
2022-12-31T09:50:04.779Z,12.76
2022-12-31T09:52:58.803Z,12.70
2022-12-31T09:55:32.196Z,12.67
2022-12-31T09:58:44.152Z,12.86
2022-12-31T10:01:37.103Z,12.80
2022-12-31T10:04:19.925Z,13.33
2022-12-31T10:07:24.027Z,13.36
2022-12-31T10:09:56.846Z,13.56
2022-12-31T10:12:56.082Z,13.03
2022-12-31T10:16:18.663Z,13.48
2022-12-31T10:19:06.914Z,14.01
2022-12-31T10:21:59.057Z,13.67
2022-12-31T10:24:47.303Z,13.84
2022-12-31T10:27:28.693Z,13.81
2022-12-31T10:30:03.594Z,13.87
2022-12-31T10:32:43.517Z,14.17
2022-12-31T10:35:23.634Z,13.91
2022-12-31T10:37:58.295Z,14.23
2022-12-31T10:40:39.737Z,13.81
2022-12-31T10:43:31.442Z,13.93
2022-12-31T10:46:35.762Z,13.90
2022-12-31T10:49:25.528Z,14.17
2022-12-31T10:52:02.045Z,13.93
2022-12-31T10:54:55.996Z,14.33
2022-12-31T10:57:44.802Z,14.32
2022-12-31T11:00:16.165Z,14.05
2022-12-31T11:03:10.405Z,14.38
2022-12-31T11:06:08.233Z,14.54
2022-12-31T11:09:02.403Z,14.43
2022-12-31T11:11:52.501Z,14.64
2022-12-31T11:14:37.477Z,14.51
2022-12-31T11:17:14.528Z,14.43
2022-12-31T11:19:51.772Z,14.28
2022-12-31T11:22:51.304Z,14.25
2022-12-31T11:26:00.473Z,14.40
2022-12-31T11:28:55.127Z,14.26
2022-12-31T11:31:55.014Z,14.61
2022-12-31T11:34:21.914Z,14.54
2022-12-31T11:37:26.376Z,14.43
2022-12-31T11:40:30.833Z,14.76
2022-12-31T11:42:58.863Z,14.64
2022-12-31T11:45:37.788Z,14.43
2022-12-31T11:48:31.075Z,14.63
2022-12-31T11:51:17.246Z,14.57
2022-12-31T11:54:14.291Z,14.58
2022-12-31T11:56:53.759Z,14.38
2022-12-31T11:59:22.165Z,14.36
2022-12-31T12:01:59.569Z,14.50
2022-12-31T12:04:26.659Z,14.57
2022-12-31T12:06:53.612Z,14.64
2022-12-31T12:09:32.461Z,14.45
2022-12-31T12:12:04.875Z,14.52
2022-12-31T12:14:37.392Z,14.41
2022-12-31T12:17:16.784Z,14.19
2022-12-31T12:19:47.179Z,14.27
2022-12-31T12:22:23.560Z,14.93
2022-12-31T12:25:16.755Z,15.03
2022-12-31T12:27:43.693Z,14.74
2022-12-31T12:30:22.810Z,14.49
2022-12-31T12:33:01.343Z,14.80
2022-12-31T12:35:31.616Z,14.48
2022-12-31T12:38:04.748Z,14.58
2022-12-31T12:40:34.397Z,14.69
2022-12-31T12:43:02.739Z,14.77
2022-12-31T12:45:42.069Z,14.71
2022-12-31T12:48:17.979Z,14.57
2022-12-31T12:50:48.406Z,14.82
2022-12-31T12:53:52.235Z,15.03
2022-12-31T12:56:54.105Z,14.70
2022-12-31T12:59:51.094Z,14.80
2022-12-31T13:02:48.974Z,14.44
2022-12-31T13:05:38.993Z,14.64
2022-12-31T13:08:25.661Z,14.30
2022-12-31T13:11:01.265Z,14.62
2022-12-31T13:13:41.665Z,14.59
2022-12-31T13:16:32.879Z,14.51
2022-12-31T13:19:44.695Z,14.44
2022-12-31T13:22:29.706Z,14.44
2022-12-31T13:24:59.280Z,14.19
2022-12-31T13:27:32.132Z,14.29
2022-12-31T13:30:03.902Z,14.17
2022-12-31T13:32:40.179Z,14.03
2022-12-31T13:35:42.474Z,14.24
2022-12-31T13:38:21.761Z,14.41
2022-12-31T13:40:57.023Z,14.21
2022-12-31T13:43:32.827Z,14.04
2022-12-31T13:46:08.538Z,14.25
2022-12-31T13:49:27.204Z,13.99
2022-12-31T13:52:07.163Z,14.23
2022-12-31T13:54:53.549Z,14.19
2022-12-31T13:57:39.059Z,14.18
2022-12-31T14:00:17.318Z,14.03
2022-12-31T14:02:47.899Z,14.36
2022-12-31T14:05:23.102Z,13.94
2022-12-31T14:07:59.169Z,14.03
2022-12-31T14:10:31.832Z,14.03
2022-12-31T14:13:34.764Z,14.11
2022-12-31T14:16:13.492Z,13.89
2022-12-31T14:18:57.225Z,14.11
2022-12-31T14:21:29.704Z,14.06
2022-12-31T14:24:18.454Z,13.98
2022-12-31T14:26:49.732Z,13.85
2022-12-31T14:29:55.400Z,13.82
2022-12-31T14:32:30.998Z,14.07
2022-12-31T14:35:22.425Z,14.23
2022-12-31T14:38:10.561Z,13.96
2022-12-31T14:40:43.773Z,13.93
2022-12-31T14:43:35.466Z,13.72
2022-12-31T14:46:39.011Z,13.84
2022-12-31T14:49:56.631Z,13.92
2022-12-31T14:52:31.658Z,14.06
2022-12-31T14:55:27.426Z,13.78
2022-12-31T15:01:08.600Z,14.02
2022-12-31T15:03:45.019Z,13.76
2022-12-31T15:06:24.673Z,13.89
2022-12-31T15:09:08.183Z,13.59
2022-12-31T15:11:58.638Z,13.69
2022-12-31T15:14:43.631Z,13.73
2022-12-31T15:17:22.183Z,13.75
2022-12-31T15:20:01.780Z,13.82
2022-12-31T15:22:28.524Z,13.46
2022-12-31T15:24:55.522Z,13.31
2022-12-31T15:27:38.299Z,13.18
2022-12-31T15:30:06.688Z,13.13
2022-12-31T15:32:43.406Z,13.16
2022-12-31T15:35:22.301Z,13.09
2022-12-31T15:38:17.181Z,12.99
2022-12-31T15:40:46.153Z,13.01
2022-12-31T15:43:25.259Z,12.85
2022-12-31T15:45:54.961Z,12.75
2022-12-31T15:48:26.935Z,12.79
2022-12-31T15:50:57.946Z,12.92
2022-12-31T15:53:33.319Z,12.83
2022-12-31T15:56:02.540Z,12.92
2022-12-31T15:58:38.291Z,12.95
2022-12-31T16:01:20.272Z,12.85
2022-12-31T16:03:51.769Z,13.01
2022-12-31T16:06:18.597Z,13.03
2022-12-31T16:08:48.026Z,12.99
2022-12-31T16:11:15.741Z,13.12
2022-12-31T16:13:45.635Z,12.84
2022-12-31T16:16:31.518Z,12.96
2022-12-31T16:19:00.496Z,12.97
2022-12-31T16:21:36.040Z,13.05
2022-12-31T16:24:29.601Z,13.13
2022-12-31T16:26:59.922Z,13.20
2022-12-31T16:29:27.052Z,13.19
2022-12-31T16:31:54.090Z,13.39
2022-12-31T16:34:26.187Z,13.09
2022-12-31T16:37:01.505Z,13.05
2022-12-31T16:39:32.371Z,12.88
2022-12-31T16:42:09.647Z,12.74
2022-12-31T16:44:36.500Z,12.64
2022-12-31T16:47:04.152Z,12.54
2022-12-31T16:49:33.240Z,12.40
2022-12-31T16:52:07.896Z,12.44
2022-12-31T16:54:39.445Z,12.47
2022-12-31T16:57:06.707Z,12.54
2022-12-31T16:59:35.818Z,12.55
2022-12-31T17:02:11.560Z,12.59
2022-12-31T17:04:45.112Z,12.93
2022-12-31T17:07:30.443Z,12.99
2022-12-31T17:10:13.123Z,12.96
2022-12-31T17:13:25.636Z,13.09
2022-12-31T17:15:44.430Z,12.98
2022-12-31T17:18:20.008Z,12.85
2022-12-31T17:20:47.873Z,12.68
2022-12-31T17:23:31.788Z,12.73
2022-12-31T17:26:03.275Z,12.76
2022-12-31T17:28:39.602Z,12.60
2022-12-31T17:31:25.524Z,12.70
2022-12-31T17:33:54.811Z,12.88
2022-12-31T17:36:23.530Z,12.86
2022-12-31T17:38:53.691Z,12.86
2022-12-31T17:41:24.902Z,12.89
2022-12-31T17:43:54.883Z,13.03
2022-12-31T17:46:23.243Z,12.98
2022-12-31T17:48:53.242Z,12.82
2022-12-31T17:51:24.309Z,12.88
2022-12-31T17:53:51.547Z,12.73
2022-12-31T17:56:19.641Z,12.69
2022-12-31T17:58:48.419Z,12.82
2022-12-31T18:01:19.073Z,12.95
2022-12-31T18:03:47.784Z,12.70
2022-12-31T18:06:17.095Z,12.56
2022-12-31T18:08:44.224Z,12.58
2022-12-31T18:11:23.281Z,12.75
2022-12-31T18:13:50.437Z,12.45
2022-12-31T18:16:17.322Z,12.58
2022-12-31T18:18:45.392Z,12.58
2022-12-31T18:21:41.897Z,12.71
2022-12-31T18:24:14.053Z,12.89
2022-12-31T18:26:41.289Z,12.71
2022-12-31T18:29:19.493Z,12.78
2022-12-31T18:31:47.884Z,12.93
2022-12-31T18:34:16.031Z,12.68
2022-12-31T18:36:43.052Z,12.61
2022-12-31T18:39:09.945Z,12.75
2022-12-31T18:41:42.703Z,12.67
2022-12-31T18:44:12.410Z,12.65
2022-12-31T18:46:39.187Z,12.57
2022-12-31T18:49:05.824Z,12.50
2022-12-31T18:51:33.970Z,12.42
2022-12-31T18:54:02.545Z,12.47
2022-12-31T18:56:29.231Z,12.55
2022-12-31T18:58:56.086Z,12.39
2022-12-31T19:01:27.966Z,12.52
2022-12-31T19:03:57.244Z,12.48
2022-12-31T19:06:24.569Z,12.48
2022-12-31T19:08:51.648Z,12.55
2022-12-31T19:11:18.880Z,12.28
2022-12-31T19:13:45.931Z,12.46
2022-12-31T19:16:14.008Z,12.40
2022-12-31T19:18:41.838Z,12.46
2022-12-31T19:21:20.377Z,12.50
2022-12-31T19:23:47.385Z,12.52
2022-12-31T19:26:20.199Z,12.71
2022-12-31T19:28:47.651Z,12.39
2022-12-31T19:31:15.023Z,12.11
2022-12-31T19:33:42.139Z,12.38
2022-12-31T19:36:17.023Z,12.46
2022-12-31T19:38:44.423Z,12.15
2022-12-31T19:41:18.237Z,12.16
2022-12-31T19:43:45.384Z,11.94
2022-12-31T19:46:17.269Z,11.96
2022-12-31T19:48:45.551Z,11.97
2022-12-31T19:51:16.888Z,11.91
2022-12-31T19:53:45.008Z,12.04
2022-12-31T19:56:18.107Z,11.91
2022-12-31T19:58:45.397Z,11.83
2022-12-31T20:01:22.829Z,11.78
2022-12-31T20:03:50.470Z,11.79
2022-12-31T20:06:18.233Z,11.66
2022-12-31T20:08:46.501Z,11.80
2022-12-31T20:11:20.433Z,11.78
2022-12-31T20:13:48.303Z,11.77
2022-12-31T20:16:17.767Z,11.82
2022-12-31T20:18:46.503Z,11.65
2022-12-31T20:21:17.881Z,11.66
2022-12-31T20:23:45.033Z,11.79
2022-12-31T20:26:11.911Z,11.82
2022-12-31T20:28:38.737Z,11.85
2022-12-31T20:31:11.055Z,11.68
2022-12-31T20:33:37.666Z,11.68
2022-12-31T20:36:06.780Z,12.06
2022-12-31T20:38:33.579Z,11.85
2022-12-31T20:41:09.418Z,12.01
2022-12-31T20:43:37.150Z,11.92
2022-12-31T20:46:15.403Z,11.85
2022-12-31T20:48:43.283Z,11.75
2022-12-31T20:51:09.994Z,11.68
2022-12-31T20:53:36.719Z,11.69
2022-12-31T20:56:05.018Z,11.63
2022-12-31T20:58:31.831Z,11.41
2022-12-31T21:00:58.657Z,11.29
2022-12-31T21:04:02.951Z,11.27
2022-12-31T21:06:13.139Z,11.56
2022-12-31T21:08:40.247Z,11.49
2022-12-31T21:11:27.794Z,11.27
2022-12-31T21:13:56.207Z,11.52
2022-12-31T21:16:23.591Z,11.46
2022-12-31T21:18:51.570Z,11.16
2022-12-31T21:21:21.809Z,11.44
2022-12-31T21:23:48.491Z,11.35
2022-12-31T21:26:15.476Z,11.25
2022-12-31T21:28:42.479Z,11.34
2022-12-31T21:31:12.189Z,11.39
2022-12-31T21:33:39.257Z,11.32
2022-12-31T21:36:06.096Z,11.44
2022-12-31T21:38:36.600Z,11.40
2022-12-31T21:41:05.444Z,11.43
2022-12-31T21:43:32.247Z,11.36
2022-12-31T21:46:06.371Z,11.47
2022-12-31T21:48:34.064Z,11.55
2022-12-31T21:51:13.274Z,11.69
2022-12-31T21:53:40.270Z,11.71
2022-12-31T21:56:08.514Z,11.51
2022-12-31T21:58:40.969Z,11.50
2022-12-31T22:01:34.108Z,11.50
2022-12-31T22:04:01.206Z,11.38
2022-12-31T22:06:28.367Z,11.51
2022-12-31T22:08:56.376Z,11.55
2022-12-31T22:11:26.040Z,11.35
2022-12-31T22:13:53.739Z,11.53
2022-12-31T22:16:22.422Z,11.33
2022-12-31T22:18:50.275Z,11.45
2022-12-31T22:21:20.428Z,11.36
2022-12-31T22:23:52.896Z,11.52
2022-12-31T22:26:23.612Z,11.48
2022-12-31T22:28:51.230Z,11.25
2022-12-31T22:31:21.417Z,11.05
2022-12-31T22:33:49.367Z,11.18
2022-12-31T22:36:18.998Z,11.11
2022-12-31T22:38:46.297Z,10.88
2022-12-31T22:41:21.373Z,10.90
2022-12-31T22:43:50.692Z,10.95
2022-12-31T22:46:23.196Z,11.12
2022-12-31T22:48:50.785Z,11.36
2022-12-31T22:51:18.122Z,11.26
2022-12-31T22:53:44.880Z,11.66
2022-12-31T22:56:13.976Z,11.78
2022-12-31T22:58:41.785Z,11.71
2022-12-31T23:01:16.553Z,11.83
2022-12-31T23:03:43.460Z,11.90
2022-12-31T23:06:10.600Z,11.94
2022-12-31T23:08:37.511Z,11.90
2022-12-31T23:11:09.540Z,11.90
2022-12-31T23:13:57.744Z,11.52
2022-12-31T23:16:45.532Z,11.34
2022-12-31T23:19:31.353Z,11.37
2022-12-31T23:22:16.630Z,11.36
2022-12-31T23:24:43.856Z,11.41
2022-12-31T23:27:11.392Z,11.53
2022-12-31T23:29:46.243Z,11.52
2022-12-31T23:32:16.013Z,11.48
2022-12-31T23:34:46.059Z,11.48
2022-12-31T23:37:14.311Z,11.63
2022-12-31T23:39:41.801Z,11.58
2022-12-31T23:42:08.749Z,11.82
2022-12-31T23:44:35.456Z,11.75
2022-12-31T23:47:02.107Z,11.65
2022-12-31T23:49:28.815Z,11.69
2022-12-31T23:51:55.748Z,11.88
2022-12-31T23:54:22.355Z,11.88
2022-12-31T23:56:49.155Z,11.96
2022-12-31T23:59:16.239Z,11.97
